Time;durP1;ratioP1;P1;durP2;ratioP2;P2;SDS_P1;SDS_P2;PMS_P1;PMS_P2;Temp;Humidity;BMP_temperature;BMP_pressure;BME280_temperature;BME280_humidity;BME280_pressure;Samples;Min_cycle;Max_cycle;Signal;HPM_P1;HPM_P2
2023/04/30 00:01:37;;;;;;;27.07;24.47;;;4.90;78.60;;;;;;4976980;28;20175;-86
2023/04/30 00:04:03;;;;;;;27.00;23.87;;;4.80;78.60;;;;;;4976638;28;20291;-86
2023/04/30 00:06:28;;;;;;;27.30;24.63;;;4.80;78.70;;;;;;4975486;28;20201;-86
2023/04/30 00:08:54;;;;;;;17.97;12.47;;;4.80;78.80;;;;;;4976691;28;20183;-86
2023/04/30 00:11:20;;;;;;;15.10;11.67;;;4.80;78.80;;;;;;4976937;28;20174;-86
2023/04/30 00:13:45;;;;;;;26.63;23.90;;;4.70;78.80;;;;;;4975932;28;20190;-86
2023/04/30 00:16:11;;;;;;;26.93;24.30;;;4.70;78.90;;;;;;4977542;28;20189;-87
2023/04/30 00:18:37;;;;;;;26.67;24.20;;;4.80;78.80;;;;;;4976502;28;20182;-87
2023/04/30 00:21:03;;;;;;;26.33;23.53;;;4.70;78.70;;;;;;4976433;28;20205;-87
2023/04/30 00:23:29;;;;;;;18.10;12.37;;;4.60;78.70;;;;;;4976329;28;20739;-86
2023/04/30 00:25:54;;;;;;;22.30;11.90;;;4.60;78.90;;;;;;4975108;28;20269;-87
2023/04/30 00:28:20;;;;;;;17.77;11.53;;;4.50;79.00;;;;;;4975012;28;20669;-86
2023/04/30 00:30:46;;;;;;;25.03;22.60;;;4.40;79.20;;;;;;4975209;28;20193;-86
2023/04/30 00:33:11;;;;;;;29.70;23.77;;;4.50;79.20;;;;;;4976170;28;20210;-87
2023/04/30 00:35:37;;;;;;;27.20;24.37;;;4.40;79.30;;;;;;4975069;28;20182;-86
2023/04/30 00:38:03;;;;;;;27.67;25.00;;;4.40;79.30;;;;;;4976087;28;20198;-87
2023/04/30 00:40:28;;;;;;;20.50;11.87;;;4.30;79.30;;;;;;4976094;28;20178;-86
2023/04/30 00:42:54;;;;;;;21.27;11.83;;;4.30;79.40;;;;;;4975938;28;20178;-86
2023/04/30 00:45:21;;;;;;;26.60;23.90;;;4.30;79.40;;;;;;4974720;28;20194;-87
2023/04/30 00:47:47;;;;;;;28.30;25.07;;;4.30;79.40;;;;;;4976167;28;20194;-86
2023/04/30 00:50:14;;;;;;;27.50;24.93;;;4.30;79.50;;;;;;4975952;28;20196;-87
2023/04/30 00:52:41;;;;;;;29.57;24.77;;;4.30;79.50;;;;;;4974827;28;20183;-86
2023/04/30 00:55:07;;;;;;;23.87;11.77;;;4.30;79.60;;;;;;4974597;28;20233;-86
2023/04/30 00:57:34;;;;;;;19.43;11.80;;;4.30;79.70;;;;;;4975683;28;20202;-86
2023/04/30 01:00:00;;;;;;;27.47;24.53;;;4.30;79.70;;;;;;4975957;28;20266;-86
2023/04/30 01:02:25;;;;;;;28.10;25.30;;;4.30;79.80;;;;;;4974490;28;20213;-86
2023/04/30 01:04:51;;;;;;;31.37;24.57;;;4.30;79.80;;;;;;4975606;28;20198;-86
2023/04/30 01:07:17;;;;;;;26.83;22.37;;;4.30;79.70;;;;;;4975537;28;20287;-86
2023/04/30 01:09:43;;;;;;;17.17;11.33;;;4.20;79.70;;;;;;4974278;28;20182;-86
2023/04/30 01:12:28;;;;;;;14.47;11.90;;;4.20;79.70;;;;;;4974416;28;20256;-86
2023/04/30 01:15:26;;;;;;;27.27;24.77;;;4.10;79.80;;;;;;4974809;28;20166;-86
2023/04/30 01:18:17;;;;;;;26.87;24.37;;;4.10;79.80;;;;;;4974252;28;20205;-86
2023/04/30 01:21:00;;;;;;;26.50;23.93;;;4.10;79.80;;;;;;4974101;28;20181;-86
2023/04/30 01:24:17;;;;;;;30.90;25.47;;;4.00;79.90;;;;;;4975404;28;20192;-86
2023/04/30 01:27:07;;;;;;;15.00;12.53;;;4.00;80.00;;;;;;4957491;28;20229;-86
2023/04/30 01:29:38;;;;;;;27.77;22.77;;;3.90;80.40;;;;;;4990080;28;20225;-86
2023/04/30 01:32:03;;;;;;;26.00;23.73;;;3.90;80.50;;;;;;4973826;28;20729;-86
2023/04/30 01:34:29;;;;;;;25.97;22.73;;;4.00;80.50;;;;;;4973906;28;20257;-86
2023/04/30 01:37:16;;;;;;;27.60;24.73;;;4.00;80.50;;;;;;4975303;28;20206;-86
2023/04/30 01:39:57;;;;;;;19.17;10.83;;;3.90;80.50;;;;;;4975341;28;20246;-86
2023/04/30 01:42:28;;;;;;;23.70;12.50;;;4.00;80.60;;;;;;4973936;28;20173;-86
2023/04/30 01:45:13;;;;;;;26.57;23.80;;;3.90;80.50;;;;;;4990056;28;20194;-86
2023/04/30 01:47:43;;;;;;;27.80;24.30;;;3.90;80.60;;;;;;4974929;28;20192;-86
2023/04/30 01:50:27;;;;;;;26.90;23.47;;;3.90;80.60;;;;;;4989933;28;20544;-86
2023/04/30 01:52:56;;;;;;;27.47;24.53;;;3.90;80.80;;;;;;4975139;28;20164;-87
2023/04/30 01:55:55;;;;;;;25.30;11.33;;;3.90;80.80;;;;;;4973574;28;20209;-86
2023/04/30 01:58:23;;;;;;;24.00;10.60;;;3.90;80.80;;;;;;4973441;28;20203;-86
2023/04/30 02:00:49;;;;;;;23.17;20.90;;;3.90;80.80;;;;;;4989723;28;20236;-85
2023/04/30 02:03:14;;;;;;;27.07;20.90;;;3.90;80.70;;;;;;4974605;28;20197;-86
2023/04/30 02:05:40;;;;;;;25.17;22.37;;;3.90;80.80;;;;;;4973431;28;20266;-86
2023/04/30 02:08:05;;;;;;;26.27;22.83;;;3.90;80.70;;;;;;4974564;28;20684;-86
2023/04/30 02:10:31;;;;;;;20.07;9.77;;;3.90;80.80;;;;;;4973554;28;20272;-86
2023/04/30 02:12:57;;;;;;;16.30;10.67;;;3.90;80.70;;;;;;4973294;28;20298;-86
2023/04/30 02:15:22;;;;;;;23.57;21.20;;;3.90;80.60;;;;;;4974750;28;20173;-86
2023/04/30 02:17:48;;;;;;;23.70;21.03;;;3.90;80.70;;;;;;4973302;28;20203;-86
2023/04/30 02:20:13;;;;;;;21.80;19.40;;;3.90;81.40;;;;;;4974462;28;20176;-86
2023/04/30 02:22:39;;;;;;;19.67;17.97;;;3.80;82.50;;;;;;4973244;28;20561;-86
2023/04/30 02:25:05;;;;;;;17.20;8.37;;;3.80;83.10;;;;;;4973498;28;20293;-86
2023/04/30 02:27:32;;;;;;;12.87;8.57;;;3.70;83.00;;;;;;4976861;28;20198;-86
2023/04/30 02:29:58;;;;;;;21.27;15.87;;;3.80;82.90;;;;;;4977046;28;20242;-86
2023/04/30 02:32:24;;;;;;;20.70;17.80;;;3.80;82.50;;;;;;4978279;28;20191;-86
2023/04/30 02:34:49;;;;;;;23.60;17.60;;;3.90;82.30;;;;;;4977120;28;20205;-86
2023/04/30 02:37:15;;;;;;;23.77;17.77;;;3.90;82.10;;;;;;4978172;28;20234;-86
2023/04/30 02:39:41;;;;;;;12.73;8.90;;;4.00;82.10;;;;;;4977125;28;20179;-86
2023/04/30 02:42:07;;;;;;;19.00;9.07;;;4.00;82.30;;;;;;4976903;28;20647;-86
2023/04/30 02:44:33;;;;;;;14.53;8.77;;;4.10;82.50;;;;;;4976875;28;20286;-86
2023/04/30 02:46:59;;;;;;;23.03;17.80;;;4.00;82.80;;;;;;4976894;28;20196;-86
2023/04/30 02:49:25;;;;;;;23.67;18.27;;;3.90;83.10;;;;;;4976951;28;20179;-86
2023/04/30 02:51:51;;;;;;;21.53;19.47;;;3.90;83.30;;;;;;4978368;28;20253;-86
2023/04/30 02:54:17;;;;;;;21.47;19.03;;;3.80;83.40;;;;;;4976859;28;20179;-86
2023/04/30 02:56:44;;;;;;;12.70;9.60;;;3.80;84.30;;;;;;4976727;28;20196;-86
2023/04/30 02:59:09;;;;;;;19.67;10.10;;;3.80;84.80;;;;;;4976755;28;20184;-86
2023/04/30 03:01:35;;;;;;;17.50;15.97;;;3.70;85.10;;;;;;4976586;28;20551;-86
2023/04/30 03:04:02;;;;;;;18.80;16.83;;;3.60;85.50;;;;;;4977899;28;20192;-86
2023/04/30 03:06:28;;;;;;;18.80;17.07;;;3.60;85.90;;;;;;4977697;28;20183;-86
2023/04/30 03:08:54;;;;;;;22.43;16.83;;;3.70;86.10;;;;;;4976600;28;20180;-86
2023/04/30 03:11:20;;;;;;;17.23;10.37;;;3.70;86.20;;;;;;4976466;28;20234;-86
2023/04/30 03:13:50;;;;;;;21.00;11.80;;;3.70;86.10;;;;;;4976445;28;20272;-86
2023/04/30 03:16:16;;;;;;;24.63;18.70;;;3.70;86.20;;;;;;4977910;28;20176;-86
2023/04/30 03:18:41;;;;;;;22.33;19.93;;;3.70;86.30;;;;;;4976328;28;20186;-86
2023/04/30 03:21:07;;;;;;;25.10;20.83;;;3.70;86.40;;;;;;4977767;28;20193;-86
2023/04/30 03:23:32;;;;;;;22.53;19.87;;;3.80;86.60;;;;;;4976242;28;20206;-86
2023/04/30 03:25:58;;;;;;;20.87;9.93;;;3.80;86.50;;;;;;4976297;28;20181;-86
2023/04/30 03:28:23;;;;;;;10.73;9.50;;;3.90;86.40;;;;;;4977538;28;20187;-86
2023/04/30 03:30:52;;;;;;;20.33;18.53;;;3.80;86.10;;;;;;4976297;28;20182;-86
2023/04/30 03:33:17;;;;;;;20.07;18.17;;;3.80;86.10;;;;;;4975984;28;20215;-86
2023/04/30 03:35:43;;;;;;;24.10;20.13;;;3.80;86.00;;;;;;4976057;28;20191;-86
2023/04/30 03:38:09;;;;;;;24.13;19.17;;;3.90;86.10;;;;;;4975386;28;20224;-86
2023/04/30 03:40:34;;;;;;;18.33;10.57;;;3.90;86.30;;;;;;4976002;28;20182;-86
2023/04/30 03:43:00;;;;;;;15.33;10.37;;;3.90;86.50;;;;;;4977065;28;20184;-86
2023/04/30 03:45:25;;;;;;;24.53;19.07;;;3.90;86.60;;;;;;4976086;28;20647;-86
2023/04/30 03:47:51;;;;;;;25.07;19.10;;;4.00;86.60;;;;;;4975862;28;20199;-86
2023/04/30 03:50:17;;;;;;;27.53;21.63;;;4.00;86.50;;;;;;4975758;28;20174;-86
2023/04/30 03:52:43;;;;;;;22.27;20.07;;;4.00;86.50;;;;;;4977008;28;20174;-86
2023/04/30 03:55:09;;;;;;;13.07;9.57;;;4.00;86.50;;;;;;4975798;28;20186;-86
2023/04/30 03:57:35;;;;;;;12.57;9.60;;;3.90;86.10;;;;;;4975650;28;20206;-86
2023/04/30 04:00:00;;;;;;;10.33;8.67;;;3.80;86.20;;;;;;4975559;28;20682;-86
2023/04/30 04:02:26;;;;;;;17.40;15.80;;;3.80;86.20;;;;;;4975601;28;20188;-86
2023/04/30 04:04:52;;;;;;;17.20;15.90;;;3.80;85.90;;;;;;4976054;28;20199;-86
2023/04/30 04:07:17;;;;;;;18.27;16.57;;;3.70;85.80;;;;;;4975425;28;20209;-86
2023/04/30 04:09:43;;;;;;;17.47;16.10;;;3.80;85.90;;;;;;4976987;28;20212;-86
2023/04/30 04:12:09;;;;;;;10.73;8.47;;;3.90;85.80;;;;;;4975539;28;20178;-86
2023/04/30 04:14:34;;;;;;;11.20;9.50;;;4.00;85.70;;;;;;4975385;28;20671;-86
2023/04/30 04:17:00;;;;;;;18.80;17.30;;;4.00;85.60;;;;;;4975222;28;20751;-86
2023/04/30 04:19:26;;;;;;;18.07;16.27;;;4.20;85.50;;;;;;4975292;28;20186;-86
2023/04/30 04:21:52;;;;;;;17.43;15.70;;;4.30;85.20;;;;;;4976447;28;20182;-86
2023/04/30 04:24:17;;;;;;;18.77;17.07;;;4.30;84.90;;;;;;4975078;28;20309;-86
2023/04/30 04:26:43;;;;;;;15.53;9.83;;;4.40;85.00;;;;;;4975236;28;20205;-86
2023/04/30 04:29:09;;;;;;;11.20;9.37;;;4.50;84.70;;;;;;4975026;28;20210;-86
2023/04/30 04:31:34;;;;;;;16.87;15.50;;;4.40;84.80;;;;;;4974912;28;20181;-86
2023/04/30 04:34:03;;;;;;;15.97;14.80;;;4.60;85.00;;;;;;4975065;28;20177;-86
2023/04/30 04:36:29;;;;;;;15.83;14.47;;;4.70;84.80;;;;;;4974893;28;20209;-86
2023/04/30 04:39:01;;;;;;;17.17;15.43;;;4.80;84.50;;;;;;4976134;28;20236;-86
2023/04/30 04:41:31;;;;;;;11.77;8.70;;;4.80;84.40;;;;;;4975072;28;20183;-86
2023/04/30 04:43:57;;;;;;;10.97;8.60;;;4.90;84.30;;;;;;4974652;28;20218;-86
2023/04/30 04:46:24;;;;;;;16.40;14.90;;;5.00;84.10;;;;;;4974766;28;20204;-86
2023/04/30 04:48:50;;;;;;;16.97;15.33;;;5.00;83.80;;;;;;4975465;28;20546;-86
2023/04/30 04:51:15;;;;;;;20.17;15.77;;;4.90;83.80;;;;;;4974067;28;20178;-86
2023/04/30 04:53:41;;;;;;;19.50;17.10;;;5.00;84.00;;;;;;4974685;28;20196;-86
2023/04/30 04:56:07;;;;;;;16.13;9.53;;;4.90;83.70;;;;;;4974546;28;20192;-87
2023/04/30 04:58:33;;;;;;;16.07;10.43;;;4.80;84.20;;;;;;4974513;28;20179;-86
2023/04/30 05:01:00;;;;;;;18.67;11.77;;;4.80;84.60;;;;;;4974554;28;20728;-86
2023/04/30 05:03:27;;;;;;;17.97;16.30;;;5.00;84.60;;;;;;4975033;28;20214;-86
2023/04/30 05:05:52;;;;;;;20.73;17.03;;;5.00;84.40;;;;;;4974436;28;20186;-86
2023/04/30 05:08:18;;;;;;;18.50;16.77;;;5.30;84.30;;;;;;4974376;28;20209;-86
2023/04/30 05:10:43;;;;;;;19.13;12.83;;;5.40;84.00;;;;;;4974457;28;20183;-86
2023/04/30 05:13:09;;;;;;;11.00;9.70;;;5.60;83.50;;;;;;4975764;28;20183;-86
2023/04/30 05:15:34;;;;;;;11.67;9.20;;;5.50;83.20;;;;;;4974345;28;20192;-86
2023/04/30 05:18:00;;;;;;;18.53;15.33;;;5.30;83.40;;;;;;4974588;28;20221;-86
2023/04/30 05:20:26;;;;;;;17.53;15.83;;;5.20;83.90;;;;;;4974179;28;20719;-85
2023/04/30 05:22:51;;;;;;;19.67;17.60;;;5.20;84.60;;;;;;4974117;28;20554;-86
2023/04/30 05:25:17;;;;;;;16.60;14.90;;;5.30;84.70;;;;;;4975267;28;20816;-85
2023/04/30 05:27:42;;;;;;;15.53;10.23;;;5.30;84.60;;;;;;4973837;28;20199;-86
2023/04/30 05:30:08;;;;;;;12.50;9.13;;;5.50;84.70;;;;;;4974211;28;20171;-86
2023/04/30 05:32:34;;;;;;;19.03;14.47;;;5.40;84.80;;;;;;4973854;28;20194;-86
2023/04/30 05:35:00;;;;;;;17.07;13.37;;;5.40;85.80;;;;;;4974064;28;20644;-86
2023/04/30 05:37:26;;;;;;;14.40;12.90;;;5.40;86.60;;;;;;4975378;28;20284;-86
2023/04/30 05:39:52;;;;;;;20.77;14.43;;;5.50;87.00;;;;;;4973791;28;20182;-86
2023/04/30 05:42:21;;;;;;;17.57;9.67;;;5.50;87.10;;;;;;4975226;28;20266;-86
2023/04/30 05:44:48;;;;;;;19.63;9.97;;;5.60;87.00;;;;;;4973695;28;20194;-86
2023/04/30 05:47:13;;;;;;;19.57;10.40;;;5.70;87.00;;;;;;4975187;28;20191;-86
2023/04/30 05:49:39;;;;;;;21.80;14.37;;;5.70;86.80;;;;;;4973996;28;20179;-86
2023/04/30 05:52:05;;;;;;;24.10;15.60;;;5.80;86.70;;;;;;4973626;28;20190;-86
2023/04/30 05:54:30;;;;;;;19.80;15.10;;;5.80;86.70;;;;;;4974756;28;20178;-86
2023/04/30 05:56:56;;;;;;;20.97;15.73;;;5.80;86.40;;;;;;4973469;28;20225;-85
2023/04/30 05:59:21;;;;;;;22.00;11.13;;;5.80;86.10;;;;;;4989782;28;20652;-85
2023/04/30 06:01:47;;;;;;;14.37;9.30;;;5.80;86.10;;;;;;4974428;28;20269;-85
2023/04/30 06:04:12;;;;;;;22.23;14.80;;;5.90;85.40;;;;;;4974657;28;20202;-86
2023/04/30 06:06:38;;;;;;;19.10;13.87;;;6.00;84.80;;;;;;4973357;28;20216;-86
2023/04/30 06:09:03;;;;;;;21.30;14.43;;;6.00;84.50;;;;;;4974630;28;20188;-86
2023/04/30 06:11:29;;;;;;;27.57;16.03;;;6.00;84.10;;;;;;4973456;28;20183;-85
2023/04/30 06:13:55;;;;;;;22.53;15.07;;;6.20;82.90;;;;;;4974504;28;20186;-86
2023/04/30 06:16:21;;;;;;;17.53;9.57;;;6.30;82.30;;;;;;4973209;28;20209;-85
2023/04/30 06:18:46;;;;;;;21.27;10.50;;;6.30;82.70;;;;;;4973606;28;20187;-86
2023/04/30 06:21:12;;;;;;;23.90;17.27;;;6.30;82.40;;;;;;4974034;28;20189;-86
2023/04/30 06:23:37;;;;;;;19.37;16.00;;;6.40;82.10;;;;;;4974393;28;20212;-86
2023/04/30 06:26:03;;;;;;;14.00;12.20;;;6.50;81.60;;;;;;4973105;28;20645;-83
2023/04/30 06:28:29;;;;;;;24.17;16.00;;;6.60;81.10;;;;;;4973706;28;20171;-85
2023/04/30 06:30:55;;;;;;;17.93;11.63;;;6.70;80.70;;;;;;4973080;28;20224;-85
2023/04/30 06:33:20;;;;;;;20.17;13.73;;;6.70;79.20;;;;;;4974141;28;20266;-85
2023/04/30 06:35:54;;;;;;;20.23;17.07;;;6.70;79.20;;;;;;4973045;28;20274;-86
2023/04/30 06:38:20;;;;;;;24.03;18.70;;;6.70;77.50;;;;;;4974516;28;20194;-86
2023/04/30 06:40:45;;;;;;;19.93;16.83;;;6.90;77.50;;;;;;4974280;28;20178;-86
2023/04/30 06:43:11;;;;;;;25.43;17.40;;;7.10;77.60;;;;;;4974240;28;20238;-86
2023/04/30 06:45:37;;;;;;;15.60;13.27;;;7.20;76.70;;;;;;4974255;28;20673;-86
2023/04/30 06:48:03;;;;;;;20.83;13.87;;;7.40;76.50;;;;;;4974112;28;20233;-85
2023/04/30 06:50:28;;;;;;;21.27;13.77;;;7.40;76.50;;;;;;4974147;28;20574;-86
2023/04/30 06:52:54;;;;;;;18.33;13.13;;;7.40;75.80;;;;;;4974300;28;20171;-86
2023/04/30 06:55:20;;;;;;;20.47;14.93;;;7.50;73.80;;;;;;4973227;28;20174;-86
2023/04/30 06:57:45;;;;;;;18.73;16.03;;;7.50;72.30;;;;;;4972822;28;20282;-86
2023/04/30 07:00:13;;;;;;;18.27;15.43;;;7.70;71.50;;;;;;4974483;28;20540;-86
2023/04/30 07:02:39;;;;;;;22.80;15.57;;;7.80;71.20;;;;;;4972862;28;20175;-86
2023/04/30 07:05:05;;;;;;;25.33;15.63;;;8.00;70.50;;;;;;4974009;28;20205;-86
2023/04/30 07:07:31;;;;;;;21.27;19.23;;;8.00;70.80;;;;;;4972767;28;20194;-86
2023/04/30 07:09:56;;;;;;;22.03;19.70;;;7.80;70.70;;;;;;4972902;28;20179;-86
2023/04/30 07:12:22;;;;;;;22.90;20.60;;;8.10;68.70;;;;;;4974129;28;20528;-86
2023/04/30 07:14:48;;;;;;;30.47;21.00;;;8.10;67.30;;;;;;4976611;28;20217;-86
2023/04/30 07:17:13;;;;;;;28.60;21.67;;;8.30;68.20;;;;;;4976494;28;20239;-86
2023/04/30 07:19:39;;;;;;;19.37;17.43;;;8.30;68.60;;;;;;4976509;28;20191;-86
2023/04/30 07:22:04;;;;;;;18.13;15.87;;;8.00;67.00;;;;;;4992574;28;20186;-86
2023/04/30 07:24:30;;;;;;;22.20;19.73;;;8.00;68.70;;;;;;4976316;28;20206;-86
2023/04/30 07:26:56;;;;;;;22.30;20.50;;;8.30;67.70;;;;;;4976363;28;20237;-86
2023/04/30 07:29:21;;;;;;;23.93;21.00;;;8.40;67.90;;;;;;4976144;28;20318;-86
2023/04/30 07:31:47;;;;;;;22.53;20.20;;;8.60;65.50;;;;;;4977326;28;20186;-86
2023/04/30 07:34:12;;;;;;;18.63;16.93;;;8.80;63.80;;;;;;4976242;28;20186;-86
2023/04/30 07:36:38;;;;;;;19.87;17.90;;;8.80;64.40;;;;;;4977574;28;20226;-86
2023/04/30 07:39:04;;;;;;;22.33;20.40;;;8.60;64.00;;;;;;4976037;28;20174;-87
2023/04/30 07:41:30;;;;;;;22.47;20.43;;;8.60;63.70;;;;;;4975975;28;20261;-86
2023/04/30 07:43:56;;;;;;;23.43;21.47;;;8.60;61.60;;;;;;4976317;28;20297;-86
2023/04/30 07:46:24;;;;;;;22.83;20.50;;;8.70;61.70;;;;;;4977281;28;20187;-86
2023/04/30 07:48:49;;;;;;;22.67;20.83;;;8.80;62.20;;;;;;4977028;28;20344;-86
2023/04/30 07:51:15;;;;;;;18.27;16.67;;;8.80;62.90;;;;;;4975796;28;20266;-86
2023/04/30 07:53:40;;;;;;;18.30;16.50;;;8.80;63.30;;;;;;4977078;28;20174;-87
2023/04/30 07:56:07;;;;;;;24.33;21.83;;;8.90;63.20;;;;;;4975728;28;20174;-86
2023/04/30 07:58:32;;;;;;;22.97;21.17;;;8.90;63.70;;;;;;4975705;28;20183;-86
2023/04/30 08:00:58;;;;;;;23.33;21.23;;;9.20;62.50;;;;;;4977152;28;20199;-86
2023/04/30 08:03:23;;;;;;;24.00;22.20;;;9.30;62.30;;;;;;4975527;28;20203;-87
2023/04/30 08:05:49;;;;;;;19.87;17.77;;;9.60;63.20;;;;;;4975575;28;20621;-86
2023/04/30 08:08:14;;;;;;;18.43;16.83;;;9.70;63.20;;;;;;4975326;28;20238;-87
2023/04/30 08:10:40;;;;;;;23.50;21.43;;;9.60;62.00;;;;;;4975491;28;20206;-86
2023/04/30 08:13:06;;;;;;;23.83;21.60;;;9.70;63.50;;;;;;4976897;28;20174;-87
2023/04/30 08:15:33;;;;;;;26.00;22.03;;;9.80;63.30;;;;;;4976584;28;20174;-87
2023/04/30 08:17:58;;;;;;;23.60;21.60;;;9.80;61.20;;;;;;4975397;28;20195;-87
2023/04/30 08:20:25;;;;;;;19.40;17.63;;;9.70;62.00;;;;;;4975380;28;20186;-86
2023/04/30 08:22:50;;;;;;;19.90;18.17;;;9.70;62.60;;;;;;4975291;28;20178;-86
2023/04/30 08:25:16;;;;;;;19.23;17.47;;;9.60;62.30;;;;;;4975215;28;20207;-87
2023/04/30 08:27:42;;;;;;;23.90;21.70;;;9.80;61.10;;;;;;4975131;28;20194;-86
2023/04/30 08:30:08;;;;;;;24.30;22.03;;;10.00;61.00;;;;;;4975061;28;20185;-86
2023/04/30 08:32:35;;;;;;;24.67;22.17;;;10.00;58.50;;;;;;4974911;28;20191;-86
2023/04/30 08:35:03;;;;;;;25.70;23.23;;;9.90;59.50;;;;;;4975097;28;20182;-86
2023/04/30 08:37:28;;;;;;;18.20;16.40;;;9.90;61.30;;;;;;4976172;28;20672;-86
2023/04/30 08:39:54;;;;;;;18.17;16.37;;;9.80;59.90;;;;;;4974902;28;20265;-87
2023/04/30 08:42:23;;;;;;;23.93;21.60;;;9.80;59.60;;;;;;4974955;28;20175;-86
2023/04/30 08:44:49;;;;;;;22.93;20.33;;;10.30;62.10;;;;;;4975097;28;20210;-86
2023/04/30 08:47:17;;;;;;;24.10;22.10;;;10.50;61.10;;;;;;4974689;28;20720;-86
2023/04/30 08:49:44;;;;;;;23.27;21.27;;;10.30;60.00;;;;;;4974558;28;20179;-87
2023/04/30 08:52:10;;;;;;;16.97;15.17;;;10.40;59.50;;;;;;4974719;28;20186;-87
2023/04/30 08:54:36;;;;;;;19.97;15.50;;;10.50;57.60;;;;;;4974676;28;20179;-87
2023/04/30 08:57:03;;;;;;;16.80;15.10;;;10.50;58.50;;;;;;4990725;28;20241;-86
2023/04/30 08:59:29;;;;;;;24.70;22.60;;;10.60;57.70;;;;;;4974741;28;20193;-86
2023/04/30 09:01:55;;;;;;;24.67;22.50;;;10.50;57.90;;;;;;4974558;28;20178;-87
2023/04/30 09:04:20;;;;;;;25.07;22.53;;;10.80;59.80;;;;;;4975595;28;20205;-87
2023/04/30 09:06:46;;;;;;;24.07;22.10;;;10.90;57.80;;;;;;4974357;28;20564;-87
2023/04/30 09:09:15;;;;;;;18.87;15.30;;;11.10;58.40;;;;;;4975801;28;20182;-86
2023/04/30 09:11:41;;;;;;;20.37;14.70;;;10.80;59.30;;;;;;4974310;28;20306;-87
2023/04/30 09:14:07;;;;;;;21.70;20.00;;;10.80;58.70;;;;;;4974263;28;20186;-87
2023/04/30 09:16:59;;;;;;;22.77;20.67;;;10.80;58.30;;;;;;4974185;28;20585;-86
2023/04/30 09:19:28;;;;;;;25.83;22.17;;;10.50;57.70;;;;;;4988495;28;20222;-86
2023/04/30 09:21:54;;;;;;;20.70;18.67;;;10.30;57.60;;;;;;4974122;28;20183;-87
2023/04/30 09:24:22;;;;;;;17.70;15.63;;;10.60;58.30;;;;;;4975239;28;20206;-88
2023/04/30 09:26:50;;;;;;;22.27;15.97;;;10.30;57.10;;;;;;4975254;28;20217;-87
2023/04/30 09:29:16;;;;;;;22.33;20.23;;;10.50;58.10;;;;;;4974121;28;20210;-87
2023/04/30 09:31:44;;;;;;;21.30;19.27;;;10.60;59.50;;;;;;4973983;28;20233;-87
2023/04/30 09:34:10;;;;;;;21.43;19.60;;;10.80;57.80;;;;;;4973922;28;20233;-87
2023/04/30 09:36:36;;;;;;;22.87;20.70;;;10.90;57.30;;;;;;4974716;28;20262;-87
2023/04/30 09:39:17;;;;;;;17.00;15.50;;;10.80;57.80;;;;;;4974229;28;20190;-87
2023/04/30 09:41:43;;;;;;;17.50;15.97;;;11.40;60.00;;;;;;4975077;28;20170;-87
2023/04/30 09:44:29;;;;;;;24.07;21.53;;;11.90;57.70;;;;;;4973709;28;20206;-87
2023/04/30 09:46:59;;;;;;;23.97;21.43;;;12.10;57.90;;;;;;4973815;28;20551;-87
2023/04/30 09:49:26;;;;;;;24.07;21.77;;;12.50;55.50;;;;;;4974800;28;20568;-87
2023/04/30 09:52:00;;;;;;;22.43;20.53;;;12.00;55.50;;;;;;4973908;28;20664;-87
2023/04/30 09:54:28;;;;;;;22.00;15.90;;;12.30;55.80;;;;;;4989764;28;20194;-87
2023/04/30 09:56:56;;;;;;;19.43;15.00;;;12.30;54.80;;;;;;4973812;28;20573;-87
2023/04/30 09:59:30;;;;;;;20.30;17.63;;;11.90;56.70;;;;;;4974735;28;20719;-87
2023/04/30 10:02:00;;;;;;;24.87;22.40;;;11.30;54.00;;;;;;4973871;28;20180;-86
2023/04/30 10:04:29;;;;;;;22.60;20.60;;;11.30;56.50;;;;;;4973435;28;20210;-86
2023/04/30 10:06:58;;;;;;;23.60;21.23;;;11.80;54.80;;;;;;4973289;28;20209;-86
2023/04/30 10:09:28;;;;;;;17.83;16.13;;;11.70;52.40;;;;;;4973538;28;20265;-86
2023/04/30 10:11:56;;;;;;;20.20;16.47;;;11.80;55.50;;;;;;4973368;28;20254;-86
2023/04/30 10:14:26;;;;;;;21.07;16.17;;;11.70;56.10;;;;;;4973394;28;20218;-86
2023/04/30 10:17:03;;;;;;;23.90;21.50;;;12.30;55.40;;;;;;4989438;28;20198;-86
2023/04/30 10:19:35;;;;;;;22.20;20.20;;;12.40;52.50;;;;;;4973651;28;20189;-86
2023/04/30 10:22:01;;;;;;;24.13;21.77;;;12.70;54.20;;;;;;4974639;28;20287;-87
2023/04/30 10:24:26;;;;;;;23.63;21.63;;;12.80;55.00;;;;;;4974418;28;20238;-86
2023/04/30 10:26:53;;;;;;;17.87;15.17;;;12.80;52.60;;;;;;4973220;28;20214;-86
2023/04/30 10:29:19;;;;;;;18.53;16.90;;;13.10;51.60;;;;;;4973068;28;20178;-86
2023/04/30 10:31:51;;;;;;;25.10;22.77;;;12.90;51.20;;;;;;4974296;28;20187;-86
2023/04/30 10:34:17;;;;;;;25.47;22.83;;;12.20;51.80;;;;;;4973134;28;20559;-85
2023/04/30 10:36:49;;;;;;;24.20;21.97;;;12.70;55.20;;;;;;4989317;28;20198;-86
2023/04/30 10:39:21;;;;;;;24.43;22.27;;;12.70;52.90;;;;;;4973085;28;20604;-86
2023/04/30 10:41:47;;;;;;;18.70;16.87;;;13.20;52.40;;;;;;4974298;28;20185;-87
2023/04/30 10:44:14;;;;;;;26.37;17.70;;;13.40;51.10;;;;;;4974283;28;20222;-87
2023/04/30 10:46:40;;;;;;;30.63;23.83;;;13.70;49.80;;;;;;4972977;28;20210;-86
2023/04/30 10:49:07;;;;;;;26.40;24.00;;;13.80;47.20;;;;;;4975945;28;20179;-86
2023/04/30 10:51:50;;;;;;;25.13;22.90;;;13.70;48.20;;;;;;4977041;28;20249;-86
2023/04/30 10:54:23;;;;;;;26.37;23.87;;;13.30;49.30;;;;;;4976913;28;20675;-86
2023/04/30 10:56:51;;;;;;;19.43;17.47;;;12.90;48.00;;;;;;4977337;28;20213;-86
2023/04/30 10:59:17;;;;;;;19.33;17.53;;;12.60;48.60;;;;;;4978022;28;20182;-86
2023/04/30 11:01:57;;;;;;;26.23;23.60;;;12.90;52.30;;;;;;4977890;28;20178;-86
2023/04/30 11:04:24;;;;;;;26.23;23.70;;;13.40;53.20;;;;;;4976734;28;20211;-87
2023/04/30 11:06:55;;;;;;;25.43;23.43;;;13.80;52.60;;;;;;4977739;28;20542;-86
2023/04/30 11:09:46;;;;;;;25.90;23.60;;;13.40;53.80;;;;;;4992868;28;20175;-86
2023/04/30 11:12:27;;;;;;;19.17;17.17;;;13.80;52.90;;;;;;4988451;28;20191;-86
2023/04/30 11:15:06;;;;;;;19.20;17.30;;;14.10;49.10;;;;;;4976584;28;20178;-86
2023/04/30 11:17:32;;;;;;;26.43;24.17;;;13.90;51.80;;;;;;4976875;28;20759;-86
2023/04/30 11:19:59;;;;;;;27.20;24.33;;;13.80;49.90;;;;;;4977606;28;20183;-86
2023/04/30 11:22:28;;;;;;;25.73;23.60;;;13.50;48.90;;;;;;4976586;28;20226;-86
2023/04/30 11:25:09;;;;;;;26.20;24.10;;;13.70;47.80;;;;;;4977895;28;20194;-86
2023/04/30 11:27:36;;;;;;;21.43;18.00;;;13.20;50.80;;;;;;4977416;28;20245;-87
2023/04/30 11:30:08;;;;;;;19.77;17.23;;;14.10;48.60;;;;;;4976226;28;20222;-87
2023/04/30 11:32:35;;;;;;;26.38;24.25;;;14.40;47.70;;;;;;4976053;28;20197;-87
2023/04/30 11:35:04;;;;;;;25.95;23.85;;;14.30;46.80;;;;;;4977463;28;20175;-86
2023/04/30 11:37:31;;;;;;;26.52;24.42;;;14.90;48.90;;;;;;4977390;28;20265;-87
2023/04/30 11:40:01;;;;;;;26.85;24.10;;;14.80;47.40;;;;;;4976026;28;20328;-87
2023/04/30 11:42:29;;;;;;;19.15;17.38;;;14.80;44.60;;;;;;4977798;28;20175;-87
2023/04/30 11:45:01;;;;;;;19.05;17.20;;;14.90;45.20;;;;;;4975852;28;20209;-86
2023/04/30 11:47:26;;;;;;;26.00;23.83;;;14.40;47.50;;;;;;4975858;28;20202;-87
2023/04/30 11:49:55;;;;;;;27.02;24.42;;;15.10;44.90;;;;;;4975802;28;20250;-88
2023/04/30 11:52:24;;;;;;;26.00;23.88;;;14.80;45.20;;;;;;4975732;28;20218;-88
2023/04/30 11:54:53;;;;;;;26.20;23.95;;;15.20;47.10;;;;;;4975779;28;20217;-87
2023/04/30 11:57:19;;;;;;;19.27;17.58;;;15.10;44.20;;;;;;4975565;28;20199;-86
2023/04/30 11:59:44;;;;;;;18.48;16.98;;;15.00;44.60;;;;;;4976691;28;20536;-87
2023/04/30 12:02:17;;;;;;;25.35;23.23;;;15.20;45.20;;;;;;4976966;28;20181;-87
2023/04/30 12:04:43;;;;;;;26.70;24.55;;;15.50;42.80;;;;;;4976848;28;20190;-86
2023/04/30 12:07:08;;;;;;;24.73;22.85;;;15.40;39.70;;;;;;4975863;28;20631;-86
2023/04/30 12:09:54;;;;;;;25.85;23.83;;;15.20;42.70;;;;;;4976811;28;20170;-86
2023/04/30 12:12:27;;;;;;;20.85;17.17;;;14.70;44.60;;;;;;4976663;28;20160;-86
2023/04/30 12:14:53;;;;;;;19.02;17.17;;;14.80;46.50;;;;;;4975523;28;20175;-85
2023/04/30 12:17:32;;;;;;;25.80;23.60;;;14.10;46.60;;;;;;4975437;28;20209;-85
2023/04/30 12:19:58;;;;;;;25.30;22.98;;;14.90;46.40;;;;;;4975374;28;20190;-86
2023/04/30 12:22:24;;;;;;;24.35;22.38;;;15.00;45.60;;;;;;4975256;28;20179;-86
2023/04/30 12:24:49;;;;;;;25.45;23.58;;;15.50;46.10;;;;;;4975323;28;20209;-87
2023/04/30 12:27:15;;;;;;;18.88;17.17;;;15.80;45.10;;;;;;4976343;28;20195;-86
2023/04/30 12:29:45;;;;;;;19.40;17.55;;;16.10;44.10;;;;;;4976308;28;20206;-87
2023/04/30 12:32:14;;;;;;;26.52;24.13;;;16.00;40.90;;;;;;4976566;28;20179;-86
2023/04/30 12:34:41;;;;;;;26.42;24.20;;;15.50;41.60;;;;;;4976352;28;20174;-86
2023/04/30 12:37:06;;;;;;;27.13;24.73;;;15.30;43.80;;;;;;4975067;28;20215;-86
2023/04/30 12:39:35;;;;;;;24.75;22.83;;;15.50;46.00;;;;;;4976164;28;20532;-87